»·PEaware :: N2279C KOLM-KHQM

N2279C :: KOLM-KHQM

FLIGHT INFORMATION

Flight Status: Arrived
Operator: Privately registered:
United States
More flights under this callsign
Pilot: Anonymous 31958 (31958)
Aircraft: CESSNA 172 SKYHAWK
(C172)
More flights by this aircraft type
Origin: KOLM Olympia
United States
Destination: KHQM Bowerman
United States
More flights between these airports :: More routes between these airports
Route:
File this flight plan on PilotEdge
Remarks:
Altitude:
(Current/Filed)
2,500ft
Speed:
(Current/Filed)
110kts
Departed: 13-Oct-20 11:55 AM
Arrived: 13-Oct-20 12:31 PM
Distance/Time
Traveled:
42nm/0:36
Distance/Time
To Go:
Arrived

Flight Plot

Page will automatically refresh every two minutes.

Flight plan parsing failed; only flown route is shown


Map Options




Map Legend


Flown Route
Filed Route
Departure Airport
Arrival Airport
Navaid (VOR, NDB)
Fix

Horizontal Profiles

Position Reports

Time Latitude Longitude Heading Altitude Ground
Speed
13-Oct-20 11:43 46.972897 -122.895503 330 203ft 0kts
13-Oct-20 11:44 46.972897 -122.895503 330 203ft 0kts
13-Oct-20 11:45 46.972897 -122.895503 330 203ft 0kts
13-Oct-20 11:46 46.972897 -122.895503 330 203ft 0kts
13-Oct-20 11:47 46.972897 -122.895503 330 203ft 0kts
13-Oct-20 11:48 46.972897 -122.895503 330 203ft 0kts
13-Oct-20 11:49 46.972700 -122.896176 270 203ft 8kts
13-Oct-20 11:50 46.975962 -122.900088 313 201ft 6kts
13-Oct-20 11:51 46.976136 -122.901330 283 200ft 0kts
13-Oct-20 11:52 46.976136 -122.901330 283 200ft 0kts
13-Oct-20 11:53 46.976205 -122.901735 279 200ft 10kts
13-Oct-20 11:54 46.963584 -122.906028 192 542ft 70kts
13-Oct-20 11:55 46.944510 -122.907094 192 1343ft 68kts
13-Oct-20 11:56 46.930632 -122.916883 230 2127ft 53kts
13-Oct-20 11:57 46.918850 -122.937179 232 2453ft 78kts
13-Oct-20 11:58 46.900876 -122.957636 222 2464ft 83kts
13-Oct-20 11:59 46.881478 -122.978206 222 2247ft 88kts
13-Oct-20 12:00 46.865016 -123.002631 232 1958ft 81kts
13-Oct-20 12:01 46.855485 -123.033052 246 1954ft 84kts
13-Oct-20 12:02 46.848341 -123.064798 246 1933ft 79kts
13-Oct-20 12:03 46.841115 -123.095652 246 1940ft 80kts
13-Oct-20 12:04 46.833271 -123.125191 246 2386ft 77kts
13-Oct-20 12:05 46.827349 -123.161319 260 2004ft 96kts
13-Oct-20 12:06 46.827955 -123.197511 294 1988ft 96kts
13-Oct-20 12:07 46.848596 -123.224984 308 2008ft 105kts
13-Oct-20 12:08 46.870782 -123.254359 301 2029ft 109kts
13-Oct-20 12:09 46.893770 -123.284211 309 2055ft 115kts
13-Oct-20 12:10 46.918522 -123.312382 310 1992ft 108kts
13-Oct-20 12:11 46.941322 -123.338422 310 1966ft 103kts
13-Oct-20 12:12 46.964565 -123.366588 310 1798ft 105kts
13-Oct-20 12:13 46.982405 -123.400538 287 1779ft 104kts
13-Oct-20 12:14 46.984147 -123.441314 266 1785ft 99kts
13-Oct-20 12:15 46.983600 -123.482467 266 1782ft 101kts
13-Oct-20 12:16 46.982918 -123.523180 263 1773ft 96kts
13-Oct-20 12:17 46.980200 -123.561864 263 1789ft 95kts
13-Oct-20 12:18 46.977299 -123.601841 263 1797ft 101kts
13-Oct-20 12:19 46.984377 -123.643118 281 1794ft 106kts
13-Oct-20 12:20 46.984941 -123.685398 268 1789ft 103kts
13-Oct-20 12:21 46.984787 -123.728024 268 1797ft 104kts
13-Oct-20 12:22 46.978071 -123.768013 242 1803ft 103kts
13-Oct-20 12:23 46.963060 -123.806226 242 1604ft 115kts
13-Oct-20 12:24 46.947681 -123.846310 242 1508ft 109kts
13-Oct-20 12:25 46.939345 -123.889114 257 1371ft 112kts
13-Oct-20 12:26 46.933514 -123.934379 283 1019ft 110kts
13-Oct-20 12:27 46.956719 -123.927283 76 973ft 117kts
13-Oct-20 12:28 46.969733 -123.894835 341 610ft 88kts
13-Oct-20 12:29 46.973315 -123.919435 259 174ft 66kts
13-Oct-20 12:30 46.970905 -123.939634 292 20ft 13kts
13-Oct-20 12:31 46.972194 -123.937113 78 20ft 21kts
13-Oct-20 12:32 46.973503 -123.930925 353 19ft 7kts
13-Oct-20 12:33 46.973649 -123.930858 75 19ft 0kts
13-Oct-20 12:34 46.973649 -123.930858 75 19ft 0kts
13-Oct-20 12:35 46.973649 -123.930858 75 19ft 0kts
13-Oct-20 12:36 46.973649 -123.930858 75 19ft 0kts

Navigation Log

Ident Type
Flight plan parsing failed, navigation log unavailable